Elbow Lake, Minnesota
Current Conditions -  °F | °C
As of 6:34 AM on Monday 22 Dec 2014 (Local Time) from KY63 Reporting Station
Haze Haze  
Wind Chill: 25°   Ceiling: 300
Heat Index: 36°   Visibility: 2mi
Dew Point: 36°   Wind: 17mph
Humidity: 100%   Direction: 150°SSE
Pressure: 29.5"   Gusts: NA
Location:  45.99°N, 95.98°W
Report Text: KY63 221234Z AUTO 15015KT 2SM BR OVC003 02/02 A2950 RMK AO2 T00200020
Loading
Personal Weather Stations






























Interactive Weather Map New forecast layout! Learn more

10-Day Weather Forecast

Advertisements
Track Severe Weather on mobile